aviador You're here:

KMKO Decoded Metar

MUSKOGEE in OK, USA
Report Time2018-07-16 13:53:00
UTC Time2018-07-16 14:19:06
Flight Rules vfr VFR
Wind130° at 07 kt
W.Decomp.*RWY 13: 7.0 kt HW 0.7 kt LCW
RWY 18: 3.9 kt HW 5.8 kt LCW
RWY 04: 0.7 kt HW 7.0 kt RCW
W.Rank130° ranks 9
Current wind is below 130° avg. (7.8)
Visibility9999 m
Phenomena:Light Rain
Clouds:Few 085 Hf
Scattered 110 Hf
Expected CloudBase > 400 ft AGL from Temp-Dew spread
CeilingNone
Temp25°C (ISA +11)
Dew Point24°C (94% RH)
QNH1017 hPa
Density Alt2,165 ft
Elevation607 ft
Report Wrong Elevation
Raw Report
KMKO 161353Z AUTO 13007KT 10SM -RA FEW085 SCT110 25/24 A3004 RMK
AO2 LTG DSNT NE RAB02E25B33 SLP164 P0000 T02500244=

Extra information for KMKO:More info

Metar Taf Metar & Taf Last 4 Metars F.Rules Stats Wind Profile Meteogram Temp Stats Airport Information Weather charts Add Link Nearby VenuesMetar ALERT Operation Metar Decoded Social comments

AIRNAV info for KMKO